createdAt,value
2023-05-02T00:02:50.670Z,10.9
2023-05-02T00:07:57.878Z,11
2023-05-02T00:13:04.983Z,11.1
2023-05-02T00:18:12.219Z,10.9
2023-05-02T00:23:19.394Z,11
2023-05-02T00:28:26.572Z,11
2023-05-02T00:33:33.764Z,10.8
2023-05-02T00:38:40.550Z,10.6
2023-05-02T00:43:47.667Z,10.6
2023-05-02T00:48:54.846Z,10.6
2023-05-02T00:54:02.045Z,10.8
2023-05-02T00:59:09.299Z,10.8
2023-05-02T01:04:16.426Z,10.8
2023-05-02T01:09:23.603Z,10.7
2023-05-02T01:14:30.859Z,10.5
2023-05-02T01:19:37.970Z,10.4
2023-05-02T01:24:45.159Z,10.4
2023-05-02T01:29:52.563Z,10.3
2023-05-02T01:34:59.531Z,10.4
2023-05-02T01:40:06.725Z,10.4
2023-05-02T01:45:13.948Z,10.5
2023-05-02T01:50:21.109Z,10.6
2023-05-02T01:55:28.271Z,10.6
2023-05-02T02:00:35.460Z,10.8
2023-05-02T02:05:42.667Z,10.8
2023-05-02T02:15:57.124Z,10.9
2023-05-02T02:21:04.264Z,10.9
2023-05-02T02:26:11.435Z,10.9
2023-05-02T02:31:18.586Z,10.9
2023-05-02T02:36:25.764Z,10.9
2023-05-02T02:41:33.030Z,10.9
2023-05-02T02:46:39.771Z,10.8
2023-05-02T02:51:46.959Z,10.8
2023-05-02T02:56:54.173Z,10.7
2023-05-02T03:02:01.348Z,10.5
2023-05-02T03:07:08.542Z,10.3
2023-05-02T03:12:15.715Z,10.2
2023-05-02T03:17:22.973Z,10.1
2023-05-02T03:22:30.154Z,10
2023-05-02T03:27:37.339Z,9.9
2023-05-02T03:32:44.539Z,9.9
2023-05-02T03:37:51.719Z,9.9
2023-05-02T03:42:58.911Z,9.9
2023-05-02T03:48:06.106Z,10
2023-05-02T03:53:13.332Z,10.1
2023-05-02T03:58:20.512Z,10.1
2023-05-02T04:03:27.795Z,10.1
2023-05-02T04:08:34.828Z,10.2
2023-05-02T04:13:41.643Z,10.3
2023-05-02T04:18:48.786Z,10.3
2023-05-02T04:23:55.974Z,10.3
2023-05-02T04:34:10.339Z,10.3
2023-05-02T04:39:17.525Z,10.3
2023-05-02T04:44:24.838Z,10.3
2023-05-02T04:49:31.942Z,10.3
2023-05-02T04:54:39.182Z,10.4
2023-05-02T04:59:46.358Z,10.4
2023-05-02T05:04:53.549Z,10.5
2023-05-02T05:10:00.785Z,10.6
2023-05-02T05:15:07.906Z,10.7
2023-05-02T05:20:15.062Z,10.8
2023-05-02T05:25:22.248Z,10.9
2023-05-02T05:30:28.989Z,11
2023-05-02T05:35:36.157Z,11.1
2023-05-02T05:40:43.438Z,11.2
2023-05-02T05:45:50.511Z,11.4
2023-05-02T05:50:57.735Z,11.6
2023-05-02T05:56:04.883Z,11.9
2023-05-02T06:01:12.102Z,12
2023-05-02T06:06:19.291Z,12
2023-05-02T06:11:26.519Z,12.1
2023-05-02T06:16:33.661Z,12
2023-05-02T06:21:40.970Z,11.9
2023-05-02T06:26:48.002Z,11.8
2023-05-02T06:31:55.311Z,11.9
2023-05-02T06:37:01.941Z,11.8
2023-05-02T06:42:09.119Z,11.7
2023-05-02T06:47:16.317Z,11.8
2023-05-02T06:52:23.511Z,12.6
2023-05-02T06:57:30.755Z,12.8
2023-05-02T07:07:45.053Z,13.1
2023-05-02T07:12:52.239Z,13.4
2023-05-02T07:17:59.402Z,13
2023-05-02T07:23:06.712Z,12.5
2023-05-02T07:28:13.778Z,12.5
2023-05-02T07:33:20.980Z,12.8
2023-05-02T07:38:28.182Z,12.5
2023-05-02T07:43:35.372Z,12.6
2023-05-02T07:48:42.105Z,12.8
2023-05-02T07:53:49.335Z,13.1
2023-05-02T07:58:56.462Z,13.6
2023-05-02T08:04:03.628Z,14.3
2023-05-02T08:09:10.800Z,14.2
2023-05-02T08:14:18.046Z,13.6
2023-05-02T08:19:25.192Z,13
2023-05-02T08:24:32.378Z,12.7
2023-05-02T08:29:39.574Z,12.8
2023-05-02T08:34:46.712Z,13.3
2023-05-02T08:39:53.953Z,13.7
2023-05-02T08:45:01.229Z,13.6
2023-05-02T08:50:08.342Z,13.1
2023-05-02T08:55:15.169Z,12.6
2023-05-02T09:00:22.293Z,12.2
2023-05-02T09:05:29.550Z,12.1
2023-05-02T09:15:43.753Z,12
2023-05-02T09:20:51.086Z,12.1
2023-05-02T09:25:58.237Z,12.1
2023-05-02T09:31:05.497Z,12
2023-05-02T09:36:12.622Z,12.1
2023-05-02T09:41:19.893Z,12.1
2023-05-02T09:46:26.998Z,11.9
2023-05-02T09:51:34.285Z,11.7
2023-05-02T09:56:41.450Z,11.4
2023-05-02T10:12:02.998Z,9.9
2023-05-02T10:17:10.143Z,9.7
2023-05-02T10:22:17.187Z,9.8
2023-05-02T10:27:24.375Z,10.3
2023-05-02T10:32:31.721Z,10.5
2023-05-02T10:37:38.854Z,10.9
2023-05-02T10:42:46.123Z,11.3
2023-05-02T10:47:52.797Z,10.8
2023-05-02T10:52:59.624Z,10.7
2023-05-02T10:58:06.906Z,12.2
2023-05-02T11:03:13.943Z,14
2023-05-02T11:08:21.274Z,14.1
2023-05-02T11:13:28.243Z,15.5
2023-05-02T11:18:35.569Z,16.7
2023-05-02T11:23:42.716Z,16.4
2023-05-02T11:28:49.967Z,16.5
2023-05-02T11:33:57.143Z,17
2023-05-02T11:39:04.317Z,17.5
2023-05-02T11:44:11.507Z,16.5
2023-05-02T11:49:18.322Z,15.7
2023-05-02T11:54:25.004Z,16
2023-05-02T11:59:32.259Z,14.2
2023-05-02T12:04:39.297Z,14.6
2023-05-02T12:09:46.602Z,14.7
2023-05-02T12:14:53.783Z,14.3
2023-05-02T12:20:00.979Z,14.2
2023-05-02T12:25:08.101Z,13.9
2023-05-02T12:30:15.369Z,13.3
2023-05-02T12:35:22.449Z,13.7
2023-05-02T12:40:29.736Z,13.4
2023-05-02T12:45:36.943Z,13.2
2023-05-02T12:50:43.994Z,13.2
2023-05-02T13:00:58.493Z,14.3
2023-05-02T13:18:37.209Z,13
2023-05-02T13:28:49.986Z,13.9
2023-05-02T13:33:56.338Z,13.6
2023-05-02T13:39:02.618Z,14.3
2023-05-02T13:44:08.984Z,14.1
2023-05-02T13:49:15.359Z,15.1
2023-05-02T13:59:27.949Z,14
2023-05-02T14:30:05.728Z,15.5
2023-05-02T14:35:12.233Z,16.1
2023-05-02T14:40:18.464Z,14.4
2023-05-02T14:45:24.021Z,13.7
2023-05-02T14:50:29.290Z,12.8
2023-05-02T14:55:35.743Z,13.1
2023-05-02T15:00:42.100Z,12.8
2023-05-02T15:05:48.232Z,12.7
2023-05-02T15:10:54.629Z,13
2023-05-02T15:26:13.505Z,13.5
2023-05-02T15:51:45.217Z,15.7
2023-05-02T15:56:51.519Z,16.8
2023-05-02T16:01:56.982Z,17.6
2023-05-02T16:07:03.185Z,17.5
2023-05-02T16:12:09.572Z,14.9
2023-05-02T16:17:15.847Z,14
2023-05-02T16:22:22.250Z,15.1
2023-05-02T16:27:28.581Z,13
2023-05-02T16:32:34.973Z,13.1
2023-05-02T16:37:41.083Z,14.7
2023-05-02T16:42:47.564Z,14
2023-05-02T16:47:53.733Z,13.2
2023-05-02T16:53:00.134Z,15.2
2023-05-02T16:58:06.388Z,14.3
2023-05-02T17:03:12.681Z,14.6
2023-05-02T17:08:18.140Z,13.9
2023-05-02T17:13:24.545Z,14.2
2023-05-02T17:18:30.959Z,12.5
2023-05-02T17:23:37.126Z,11.3
2023-05-02T17:28:43.427Z,10.9
2023-05-02T17:33:48.972Z,10.7
2023-05-02T17:38:54.387Z,10.6
2023-05-02T17:44:00.711Z,10.6
2023-05-02T17:49:07.101Z,10.5
2023-05-02T17:54:13.352Z,10.4
2023-05-02T17:59:19.608Z,10.1
2023-05-02T18:04:25.980Z,9.9
2023-05-02T18:09:32.386Z,9.7
2023-05-02T18:14:38.669Z,9.5
2023-05-02T18:19:44.930Z,9.4
2023-05-02T18:24:51.245Z,9.3
2023-05-02T18:29:56.738Z,9.3
2023-05-02T18:35:02.098Z,9.3
2023-05-02T18:40:08.500Z,9.2
2023-05-02T18:45:14.922Z,9.2
2023-05-02T18:50:21.245Z,9.1
2023-05-02T18:55:27.539Z,9
2023-05-02T19:00:33.905Z,8.9
2023-05-02T19:05:40.068Z,8.7
2023-05-02T19:10:46.595Z,8.5
2023-05-02T19:15:52.769Z,8.3
2023-05-02T19:20:59.176Z,8.1
2023-05-02T19:26:05.469Z,8.1
2023-05-02T19:31:11.858Z,8.1
2023-05-02T19:36:18.230Z,8.1
2023-05-02T19:41:23.441Z,8.1
2023-05-02T19:46:29.767Z,8
2023-05-02T19:51:36.282Z,8
2023-05-02T19:56:42.678Z,8
2023-05-02T20:01:48.834Z,7.9
2023-05-02T20:06:55.068Z,7.9
2023-05-02T20:12:01.477Z,7.8
2023-05-02T20:17:07.865Z,7.8
2023-05-02T20:22:14.115Z,7.7
2023-05-02T20:32:26.854Z,7.6
2023-05-02T20:37:33.245Z,7.4
2023-05-02T20:42:39.465Z,7.2
2023-05-02T20:47:44.914Z,7.1
2023-05-02T20:52:51.313Z,6.9
2023-05-02T20:57:57.552Z,6.7
2023-05-02T21:03:03.757Z,6.5
2023-05-02T21:08:10.327Z,6.3
2023-05-02T21:13:16.559Z,6.1
2023-05-02T21:18:22.845Z,6
2023-05-02T21:23:29.151Z,6
2023-05-02T21:28:35.488Z,6
2023-05-02T21:33:41.718Z,6.2
2023-05-02T21:38:48.146Z,6.4
2023-05-02T21:43:54.522Z,6.5
2023-05-02T21:49:00.765Z,6.5
2023-05-02T21:54:06.308Z,6.6
2023-05-02T21:59:12.444Z,6.7
2023-05-02T22:04:18.786Z,6.8
2023-05-02T22:09:25.150Z,6.9
2023-05-02T22:14:31.669Z,7
2023-05-02T22:19:37.902Z,7.1
2023-05-02T22:24:44.182Z,7.1
2023-05-02T22:29:50.555Z,7.1
2023-05-02T22:34:56.858Z,7.2
2023-05-02T22:40:03.215Z,7.2
2023-05-02T22:45:09.556Z,7.2
2023-05-02T22:50:15.848Z,7.1
2023-05-02T22:55:22.073Z,7
2023-05-02T23:00:27.659Z,6.8
2023-05-02T23:05:33.971Z,6.5
2023-05-02T23:10:40.124Z,6.3
2023-05-02T23:15:46.576Z,6.2
2023-05-02T23:20:52.768Z,6
2023-05-02T23:25:59.366Z,5.8
2023-05-02T23:31:05.602Z,5.6
2023-05-02T23:36:11.925Z,5.3
2023-05-02T23:41:18.239Z,5.1
2023-05-02T23:46:24.480Z,4.9
2023-05-02T23:51:30.887Z,4.6
2023-05-02T23:56:37.306Z,4.4
